Terminal Aerodrome Forecast
Issued by NWS Corpus Christi, TX

Home | Current Version | Previous Version | Text Only | Print | Product List | Glossary On
Versions: 1 2 3 4 5 6 7 8 9 10 11 12 13 14 15 16 17 18
000
FTUS44 KCRP 181122
TAFVCT
TAF
KVCT 181122Z 1812/1912 36006KT 6SM -SHRA BR OVC006
      TEMPO 1812/1816 2SM SHRA BR OVC004
     FM181600 34007KT 6SM BR VCSH BKN008 OVC012
      TEMPO 1816/1820 4SM SHRA BR SCT008 OVC012
     FM182200 33006KT P6SM SCT008 OVC025
     FM190200 33005KT 5SM BR VCSH OVC009 PROB30 1906/1912 4SM SHRA
      BR OVC004=

USA.gov is the U.S. government's official web portal to all federal, state and local government web resources and services.